Terminal Aerodrome Forecast
Issued by NWS

Home | Current Version | Previous Version | Text Only | Print | Product List | Glossary On
Versions: 1 2 3 4 5 6 7 8 9 10 11 12 13 14 15 16
881
FTUS46 KPDT 240522
TAFPSC
TAF
KPSC 240522Z 2406/2506 VRB04KT P6SM SKC
     FM241700 22005KT P6SM BKN200
     FM242100 25006KT P6SM FEW080 BKN150
     FM250200 32004KT P6SM BKN100=

USA.gov is the U.S. government's official web portal to all federal, state and local government web resources and services.